createdAt,value
2018-11-20T00:01:14.641Z,15.80
2018-11-20T00:04:22.027Z,15.80
2018-11-20T00:07:29.301Z,15.80
2018-11-20T00:10:36.538Z,15.80
2018-11-20T00:13:35.350Z,15.80
2018-11-20T00:16:42.616Z,15.80
2018-11-20T00:19:49.883Z,15.80
2018-11-20T00:22:55.745Z,15.70
2018-11-20T00:26:02.980Z,15.70
2018-11-20T00:29:10.249Z,15.60
2018-11-20T00:32:08.451Z,15.50
2018-11-20T00:35:15.670Z,15.50
2018-11-20T00:38:18.865Z,15.50
2018-11-20T00:41:26.114Z,15.50
2018-11-20T00:44:14.469Z,15.40
2018-11-20T00:47:21.726Z,15.30
2018-11-20T00:50:28.996Z,15.30
2018-11-20T00:53:36.272Z,15.20
2018-11-20T00:57:02.496Z,15.20
2018-11-20T01:00:09.822Z,15.20
2018-11-20T01:03:17.071Z,15.20
2018-11-20T01:06:13.358Z,15.10
2018-11-20T01:09:20.652Z,15.00
2018-11-20T01:12:27.898Z,15.00
2018-11-20T01:15:23.528Z,15.30
2018-11-20T01:18:11.916Z,15.10
2018-11-20T01:21:19.166Z,15.10
2018-11-20T01:24:26.577Z,15.10
2018-11-20T01:27:36.427Z,15.20
2018-11-20T01:30:43.780Z,15.20
2018-11-20T01:33:43.046Z,15.10
2018-11-20T01:36:50.961Z,15.20
2018-11-20T01:39:58.214Z,15.30
2018-11-20T01:43:05.451Z,15.20
2018-11-20T01:46:12.719Z,15.30
2018-11-20T01:49:19.984Z,15.30
2018-11-20T01:52:27.218Z,15.30
2018-11-20T01:55:34.484Z,15.30
2018-11-20T01:58:41.779Z,15.40
2018-11-20T02:01:49.167Z,15.40
2018-11-20T02:04:56.665Z,15.30
2018-11-20T02:07:55.944Z,15.30
2018-11-20T02:11:03.227Z,15.20
2018-11-20T02:14:11.954Z,15.10
2018-11-20T02:17:23.681Z,15.10
2018-11-20T02:20:30.945Z,15.10
2018-11-20T02:23:30.922Z,15.00
2018-11-20T02:26:38.189Z,15.10
2018-11-20T02:29:45.513Z,15.10
2018-11-20T02:32:52.918Z,15.10
2018-11-20T02:36:00.187Z,15.10
2018-11-20T02:39:07.446Z,15.10
2018-11-20T02:42:14.727Z,15.10
2018-11-20T02:48:21.103Z,15.10
2018-11-20T02:51:09.676Z,15.10
2018-11-20T02:54:16.981Z,15.10
2018-11-20T02:57:24.249Z,15.10
2018-11-20T03:00:20.407Z,15.10
2018-11-20T03:03:27.728Z,15.10
2018-11-20T03:06:34.952Z,15.20
2018-11-20T03:09:42.166Z,15.10
2018-11-20T03:12:49.708Z,15.20
2018-11-20T03:15:56.971Z,15.20
2018-11-20T03:19:04.326Z,15.20
2018-11-20T03:22:11.592Z,15.20
2018-11-20T03:25:18.851Z,15.20
2018-11-20T03:28:26.105Z,15.20
2018-11-20T03:31:33.445Z,15.10
2018-11-20T03:34:40.695Z,15.10
2018-11-20T03:37:47.967Z,15.10
2018-11-20T03:40:55.197Z,15.10
2018-11-20T03:44:02.492Z,15.00
2018-11-20T03:47:09.838Z,14.90
2018-11-20T03:50:17.070Z,14.80
2018-11-20T03:53:24.789Z,14.80
2018-11-20T03:56:32.108Z,14.70
2018-11-20T03:59:39.381Z,14.70
2018-11-20T04:02:46.895Z,14.70
2018-11-20T04:05:54.135Z,14.80
2018-11-20T04:09:01.488Z,14.80
2018-11-20T04:12:08.701Z,14.90
2018-11-20T04:15:15.961Z,14.90
2018-11-20T04:18:19.878Z,15.00
2018-11-20T04:21:27.139Z,15.00
2018-11-20T04:24:34.411Z,15.00
2018-11-20T04:27:41.660Z,15.00
2018-11-20T04:31:07.950Z,15.00
2018-11-20T04:34:15.277Z,15.00
2018-11-20T04:37:22.896Z,14.90
2018-11-20T04:40:23.049Z,14.90
2018-11-20T04:43:22.864Z,14.90
2018-11-20T04:46:22.434Z,14.90
2018-11-20T04:49:22.079Z,14.90
2018-11-20T04:52:22.143Z,15.00
2018-11-20T04:55:18.222Z,14.80
2018-11-20T04:58:06.459Z,14.80
2018-11-20T05:01:13.727Z,14.90
2018-11-20T05:04:20.968Z,14.90
2018-11-20T05:07:28.252Z,14.90
2018-11-20T05:10:35.526Z,14.90
2018-11-20T05:13:42.775Z,14.90
2018-11-20T05:16:50.030Z,14.90
2018-11-20T05:19:50.297Z,14.90
2018-11-20T05:22:57.587Z,14.90
2018-11-20T05:26:04.854Z,15.00
2018-11-20T05:29:12.104Z,15.00
2018-11-20T05:32:00.361Z,15.00
2018-11-20T05:35:07.617Z,15.10
2018-11-20T05:38:11.019Z,15.10
2018-11-20T05:41:18.293Z,15.20
2018-11-20T05:44:25.532Z,15.30
2018-11-20T05:47:32.815Z,15.30
2018-11-20T05:50:40.050Z,15.30
2018-11-20T05:53:47.303Z,15.40
2018-11-20T06:00:01.898Z,15.30
2018-11-20T06:03:00.661Z,15.30
2018-11-20T06:05:58.928Z,15.20
2018-11-20T06:09:06.242Z,15.10
2018-11-20T06:12:13.526Z,15.10
2018-11-20T06:15:20.806Z,15.10
2018-11-20T06:18:28.117Z,15.20
2018-11-20T06:21:35.597Z,15.20
2018-11-20T06:24:42.861Z,15.30
2018-11-20T06:27:41.890Z,15.40
2018-11-20T06:30:49.200Z,15.50
2018-11-20T06:33:56.455Z,15.60
2018-11-20T06:40:18.451Z,15.60
2018-11-20T06:43:25.708Z,15.60
2018-11-20T06:46:33.022Z,15.60
2018-11-20T06:49:40.273Z,15.50
2018-11-20T06:52:47.544Z,15.50
2018-11-20T06:55:55.193Z,15.40
2018-11-20T06:59:02.477Z,15.50
2018-11-20T07:02:09.720Z,15.50
2018-11-20T07:05:17.129Z,15.50
2018-11-20T07:08:24.515Z,15.40
2018-11-20T07:11:31.776Z,15.40
2018-11-20T07:14:40.214Z,15.40
2018-11-20T07:17:47.474Z,15.40
2018-11-20T07:20:54.730Z,15.40
2018-11-20T07:23:55.035Z,15.40
2018-11-20T07:27:02.300Z,15.40
2018-11-20T07:30:09.616Z,15.30
2018-11-20T07:33:16.876Z,15.30
2018-11-20T07:36:24.289Z,15.30
2018-11-20T07:42:38.312Z,15.30
2018-11-20T07:45:45.588Z,15.30
2018-11-20T07:48:52.873Z,15.40
2018-11-20T07:52:00.164Z,15.40
2018-11-20T07:55:07.540Z,15.30
2018-11-20T07:58:14.729Z,15.40
2018-11-20T08:01:22.064Z,15.30
2018-11-20T08:04:23.903Z,15.40
2018-11-20T08:07:23.196Z,15.30
2018-11-20T08:10:30.503Z,15.30
2018-11-20T08:13:37.824Z,15.30
2018-11-20T08:16:45.079Z,15.30
2018-11-20T08:19:52.357Z,15.30
2018-11-20T08:22:59.700Z,15.30
2018-11-20T08:26:07.163Z,15.30
2018-11-20T08:29:14.255Z,15.30
2018-11-20T08:32:21.527Z,15.30
2018-11-20T08:35:28.843Z,15.30
2018-11-20T08:38:36.412Z,15.40
2018-11-20T08:41:43.763Z,15.40
2018-11-20T08:44:51.010Z,15.40
2018-11-20T08:47:51.238Z,15.40
2018-11-20T08:50:58.622Z,15.40
2018-11-20T08:54:05.910Z,15.30
2018-11-20T08:57:13.168Z,15.30
2018-11-20T09:00:09.235Z,15.40
2018-11-20T09:03:16.609Z,15.40
2018-11-20T09:06:23.779Z,15.50
2018-11-20T09:09:31.069Z,15.50
2018-11-20T09:12:38.381Z,15.60
2018-11-20T09:15:45.755Z,15.70
2018-11-20T09:18:44.957Z,15.80
2018-11-20T09:21:52.267Z,15.90
2018-11-20T09:24:59.881Z,16.10
2018-11-20T09:28:07.424Z,16.10
2018-11-20T09:31:14.622Z,16.10
2018-11-20T09:34:21.923Z,16.10
2018-11-20T09:37:29.227Z,16.20
2018-11-20T09:40:55.444Z,16.20
2018-11-20T09:44:03.967Z,16.30
2018-11-20T09:47:11.256Z,16.40
2018-11-20T09:50:18.598Z,16.60
2018-11-20T09:53:25.889Z,16.70
2018-11-20T09:56:33.134Z,16.80
2018-11-20T09:59:40.582Z,16.80
2018-11-20T10:02:47.876Z,16.90
2018-11-20T10:05:55.145Z,16.90
2018-11-20T10:09:02.437Z,16.90
2018-11-20T10:12:09.746Z,16.90
2018-11-20T10:15:17.085Z,16.80
2018-11-20T10:18:24.290Z,16.80
2018-11-20T10:21:31.549Z,16.80
2018-11-20T10:24:38.862Z,16.70
2018-11-20T10:27:42.434Z,16.80
2018-11-20T10:30:49.700Z,16.70
2018-11-20T10:33:57.012Z,16.70
2018-11-20T10:37:04.254Z,16.70
2018-11-20T10:40:11.589Z,16.70
2018-11-20T10:43:18.951Z,16.80
2018-11-20T10:46:26.233Z,16.90
2018-11-20T10:49:33.568Z,16.80
2018-11-20T10:52:40.895Z,16.80
2018-11-20T10:55:48.112Z,16.70
2018-11-20T10:58:55.384Z,16.70
2018-11-20T11:02:02.709Z,16.60
2018-11-20T11:05:10.081Z,16.50
2018-11-20T11:08:17.343Z,16.50
2018-11-20T11:11:24.848Z,16.50
2018-11-20T11:14:32.143Z,16.60
2018-11-20T11:17:39.348Z,16.60
2018-11-20T11:20:34.852Z,16.60
2018-11-20T11:23:42.107Z,16.70
2018-11-20T11:26:49.355Z,16.80
2018-11-20T11:29:56.697Z,16.90
2018-11-20T11:33:03.938Z,16.90
2018-11-20T11:36:11.450Z,16.80
2018-11-20T11:39:18.765Z,16.90
2018-11-20T11:42:26.025Z,16.80
2018-11-20T11:45:33.383Z,16.80
2018-11-20T11:48:40.717Z,16.70
2018-11-20T11:51:47.939Z,16.70
2018-11-20T11:54:55.302Z,16.70
2018-11-20T11:58:02.552Z,16.70
2018-11-20T12:04:31.222Z,16.70
2018-11-20T12:07:38.449Z,16.70
2018-11-20T12:10:45.711Z,16.70
2018-11-20T12:13:52.971Z,16.70
2018-11-20T12:16:41.299Z,16.60
2018-11-20T12:19:48.885Z,16.60
2018-11-20T12:22:56.140Z,16.70
2018-11-20T12:26:03.405Z,16.70
2018-11-20T12:29:10.753Z,16.80
2018-11-20T12:32:17.978Z,16.90
2018-11-20T12:35:33.180Z,16.90
2018-11-20T12:38:32.625Z,17.00
2018-11-20T12:41:39.871Z,17.00
2018-11-20T12:44:47.141Z,16.90
2018-11-20T12:47:54.381Z,16.90
2018-11-20T12:51:01.653Z,16.90
2018-11-20T12:54:08.906Z,16.80
2018-11-20T12:57:16.400Z,16.80
2018-11-20T13:00:24.156Z,16.70
2018-11-20T13:03:32.916Z,16.70
2018-11-20T13:06:19.711Z,16.60
2018-11-20T13:09:28.375Z,16.60
2018-11-20T13:12:35.665Z,16.60
2018-11-20T13:15:42.942Z,16.50
2018-11-20T13:18:54.174Z,16.50
2018-11-20T13:21:57.515Z,16.50
2018-11-20T13:25:04.901Z,16.50
2018-11-20T13:28:12.135Z,16.50
2018-11-20T13:31:19.424Z,16.50
2018-11-20T13:34:27.210Z,16.50
2018-11-20T13:37:35.628Z,16.50
2018-11-20T13:41:01.336Z,16.50
2018-11-20T13:44:08.572Z,16.50
2018-11-20T13:47:15.846Z,16.50
2018-11-20T13:50:11.806Z,16.40
2018-11-20T13:53:17.231Z,16.40
2018-11-20T13:56:24.758Z,16.30
2018-11-20T13:59:34.871Z,16.30
2018-11-20T14:02:42.948Z,16.30
2018-11-20T14:05:39.278Z,16.30
2018-11-20T14:08:46.551Z,16.30
2018-11-20T14:11:53.844Z,16.30
2018-11-20T14:15:01.069Z,16.30
2018-11-20T14:18:08.364Z,16.20
2018-11-20T14:21:15.596Z,16.20
2018-11-20T14:24:22.882Z,16.30
2018-11-20T14:27:30.178Z,16.30
2018-11-20T14:30:37.430Z,16.30
2018-11-20T14:33:44.719Z,15.70
2018-11-20T14:36:51.990Z,16.30
2018-11-20T14:39:59.283Z,16.30
2018-11-20T14:43:06.567Z,16.30
2018-11-20T14:46:13.840Z,16.20
2018-11-20T14:49:21.362Z,16.20
2018-11-20T14:52:28.660Z,16.20
2018-11-20T14:55:36.562Z,16.10
2018-11-20T15:01:46.786Z,16.10
2018-11-20T15:04:54.442Z,16.10
2018-11-20T15:08:03.119Z,16.10
2018-11-20T15:11:10.506Z,16.10
2018-11-20T15:14:00.512Z,16.10
2018-11-20T15:17:08.564Z,16.10
2018-11-20T15:20:14.750Z,16.10
2018-11-20T15:23:15.070Z,16.00
2018-11-20T15:26:21.309Z,16.00
2018-11-20T15:29:21.365Z,16.00
2018-11-20T15:35:16.797Z,16.00
2018-11-20T15:38:10.548Z,16.10
2018-11-20T15:41:16.623Z,16.10
2018-11-20T15:44:17.690Z,16.10
2018-11-20T15:47:18.053Z,16.10
2018-11-20T15:50:17.882Z,16.10
2018-11-20T15:53:18.864Z,16.00
2018-11-20T15:56:18.872Z,16.00
2018-11-20T15:59:18.936Z,16.00
2018-11-20T16:02:18.444Z,16.10
2018-11-20T16:05:18.329Z,16.00
2018-11-20T16:08:18.713Z,15.40
2018-11-20T16:11:18.790Z,16.10
2018-11-20T16:14:19.927Z,16.10
2018-11-20T16:17:19.716Z,16.00
2018-11-20T16:20:21.174Z,16.10
2018-11-20T16:23:16.504Z,16.00
2018-11-20T16:26:11.957Z,15.90
2018-11-20T16:29:11.404Z,15.90
2018-11-20T16:35:17.644Z,15.80
2018-11-20T16:44:26.161Z,16.00
2018-11-20T16:50:33.962Z,16.20
2018-11-20T16:53:33.687Z,16.30
2018-11-20T16:56:33.576Z,16.30
2018-11-20T17:02:16.870Z,16.60
2018-11-20T17:05:17.203Z,16.60
2018-11-20T17:08:17.353Z,16.70
2018-11-20T17:11:23.421Z,16.70
2018-11-20T17:14:18.986Z,16.60
2018-11-20T17:17:22.187Z,16.60
2018-11-20T17:20:22.301Z,16.50
2018-11-20T17:26:19.155Z,16.40
2018-11-20T17:29:18.664Z,16.30
2018-11-20T17:32:19.865Z,16.30
2018-11-20T17:35:21.012Z,16.30
2018-11-20T17:38:16.226Z,16.20
2018-11-20T17:41:16.875Z,16.20
2018-11-20T17:44:22.696Z,16.20
2018-11-20T17:47:28.755Z,16.10
2018-11-20T17:50:21.191Z,16.00
2018-11-20T17:53:09.563Z,16.00
2018-11-20T17:56:16.830Z,16.00
2018-11-20T17:59:24.107Z,15.90
2018-11-20T18:02:29.418Z,15.90
2018-11-20T18:05:36.760Z,15.80
2018-11-20T18:08:44.024Z,15.70
2018-11-20T18:11:32.452Z,15.70
2018-11-20T18:14:39.713Z,15.60
2018-11-20T18:17:47.881Z,15.70
2018-11-20T18:20:54.579Z,15.70
2018-11-20T18:24:01.873Z,15.80
2018-11-20T18:27:09.216Z,15.90
2018-11-20T18:30:16.477Z,15.90
2018-11-20T18:33:23.768Z,15.90
2018-11-20T18:36:21.120Z,15.90
2018-11-20T18:39:09.652Z,15.90
2018-11-20T18:42:16.919Z,15.80
2018-11-20T18:45:24.264Z,15.80
2018-11-20T18:48:31.892Z,15.80
2018-11-20T18:51:39.138Z,15.80
2018-11-20T18:54:46.438Z,15.80
2018-11-20T18:57:53.816Z,15.80
2018-11-20T19:01:01.089Z,15.80
2018-11-20T19:04:00.440Z,15.80
2018-11-20T19:07:08.036Z,15.70
2018-11-20T19:10:15.759Z,15.70
2018-11-20T19:13:23.137Z,15.70
2018-11-20T19:16:30.814Z,15.70
2018-11-20T19:19:38.195Z,15.70
2018-11-20T19:22:46.261Z,15.60
2018-11-20T19:25:53.563Z,15.60
2018-11-20T19:29:00.852Z,15.60
2018-11-20T19:32:03.594Z,15.60
2018-11-20T19:35:10.861Z,15.60
2018-11-20T19:38:18.176Z,15.60
2018-11-20T19:41:25.855Z,15.60
2018-11-20T19:44:33.163Z,15.60
2018-11-20T19:47:40.705Z,15.50
2018-11-20T19:50:48.017Z,15.50
2018-11-20T19:53:55.331Z,15.50
2018-11-20T19:57:03.789Z,15.40
2018-11-20T20:00:11.131Z,15.40
2018-11-20T20:03:18.495Z,15.40
2018-11-20T20:06:26.274Z,15.40
2018-11-20T20:09:33.930Z,15.40
2018-11-20T20:12:41.210Z,15.40
2018-11-20T20:15:48.535Z,15.40
2018-11-20T20:18:56.256Z,15.40
2018-11-20T20:22:03.622Z,15.30
2018-11-20T20:25:10.936Z,15.30
2018-11-20T20:28:18.185Z,15.30
2018-11-20T20:31:26.261Z,15.30
2018-11-20T20:34:33.823Z,15.20
2018-11-20T20:37:41.110Z,15.20
2018-11-20T20:40:48.618Z,15.20
2018-11-20T20:43:56.752Z,15.20
2018-11-20T20:47:04.112Z,15.10
2018-11-20T20:50:11.395Z,15.10
2018-11-20T20:53:18.638Z,15.10
2018-11-20T20:56:16.845Z,15.00
2018-11-20T20:59:29.691Z,14.90
2018-11-20T21:02:36.984Z,14.90
2018-11-20T21:05:44.273Z,14.90
2018-11-20T21:08:52.598Z,14.90
2018-11-20T21:11:59.936Z,14.80
2018-11-20T21:15:07.261Z,14.90
2018-11-20T21:18:15.425Z,14.90
2018-11-20T21:21:22.811Z,14.90
2018-11-20T21:24:30.072Z,14.90
2018-11-20T21:27:37.370Z,14.80
2018-11-20T21:30:44.793Z,14.80
2018-11-20T21:33:52.075Z,14.80
2018-11-20T21:36:59.781Z,14.80
2018-11-20T21:40:07.858Z,14.80
2018-11-20T21:43:15.135Z,14.90
2018-11-20T21:46:22.416Z,14.90
2018-11-20T21:49:30.620Z,14.90
2018-11-20T21:52:37.905Z,14.80
2018-11-20T21:55:45.492Z,14.80
2018-11-20T21:58:52.760Z,14.80
2018-11-20T22:02:00.159Z,14.80
2018-11-20T22:05:07.664Z,14.80
2018-11-20T22:08:15.295Z,14.30
2018-11-20T22:11:23.925Z,14.90
2018-11-20T22:14:23.852Z,14.90
2018-11-20T22:17:31.683Z,14.90
2018-11-20T22:20:20.750Z,14.90
2018-11-20T22:23:28.729Z,14.90
2018-11-20T22:26:25.415Z,14.90
2018-11-20T22:29:20.173Z,14.70
2018-11-20T22:32:27.833Z,14.90
2018-11-20T22:35:30.038Z,14.90
2018-11-20T22:38:38.199Z,14.90
2018-11-20T22:41:46.136Z,14.90
2018-11-20T22:44:53.580Z,14.90
2018-11-20T22:48:01.054Z,14.90
2018-11-20T22:51:08.736Z,14.80
2018-11-20T22:54:16.034Z,14.80
2018-11-20T22:57:23.478Z,14.80
2018-11-20T23:00:30.766Z,14.70
2018-11-20T23:03:38.442Z,14.70
2018-11-20T23:06:45.071Z,14.70
2018-11-20T23:09:34.580Z,14.60
2018-11-20T23:12:23.792Z,14.60
2018-11-20T23:15:14.070Z,14.60
2018-11-20T23:18:03.861Z,14.60
2018-11-20T23:20:53.529Z,14.60
2018-11-20T23:23:43.172Z,14.60
2018-11-20T23:26:32.892Z,14.60
2018-11-20T23:29:23.315Z,14.60
2018-11-20T23:32:12.068Z,14.60
2018-11-20T23:35:01.274Z,14.60
2018-11-20T23:37:50.505Z,14.60
2018-11-20T23:40:39.719Z,14.60
2018-11-20T23:43:29.519Z,14.60
2018-11-20T23:46:18.952Z,14.60
2018-11-20T23:49:08.286Z,14.60
2018-11-20T23:51:56.878Z,14.60
2018-11-20T23:54:45.474Z,14.60
2018-11-20T23:57:34.205Z,14.60
